Arlington Center, Vermont
Current Conditions -  °F | °C
As of 3:54 PM on Tuesday 25 Nov 2014 (Local Time) from KDDH Reporting Station
Clear Clear  
Wind Chill:   Ceiling: Unl
Heat Index:   Visibility: 10mi
Dew Point: -4°   Wind: 5mph
Humidity: 41%   Direction: 300°WNW
Pressure: 29.94"   Gusts: NA
Location:  43.1041°N, 73.154°W
Report Text: KDDH 252054Z AUTO 30004KT 10SM CLR 09/M04 A2994 RMK AO2 SLP139 T00891039 53010
Loading
Personal Weather Stations






























Interactive Weather Map New forecast layout! Learn more

10-Day Weather Forecast

Advertisements
Track Severe Weather on mobile